sensor_id;sensor_type;location;lat;lon;timestamp;pressure;altitude;pressure_sealevel;temperature;humidity
6343;BME280;3204;42.698;23.298;2023-03-26T00:01:03;94431.72;;;12.02;67.41
6343;BME280;3204;42.698;23.298;2023-03-26T00:03:33;94439.13;;;11.93;68.15
6343;BME280;3204;42.698;23.298;2023-03-26T00:08:28;94441.22;;;11.96;67.72
6343;BME280;3204;42.698;23.298;2023-03-26T00:10:53;94439.47;;;11.92;68.02
6343;BME280;3204;42.698;23.298;2023-03-26T00:13:19;94438.53;;;11.88;68.38
6343;BME280;3204;42.698;23.298;2023-03-26T00:15:44;94432.50;;;11.82;68.29
6343;BME280;3204;42.698;23.298;2023-03-26T00:18:10;94424.47;;;11.86;68.48
6343;BME280;3204;42.698;23.298;2023-03-26T00:20:36;94424.47;;;11.86;68.77
6343;BME280;3204;42.698;23.298;2023-03-26T00:23:03;94420.50;;;11.83;69.05
6343;BME280;3204;42.698;23.298;2023-03-26T00:25:28;94394.53;;;11.74;68.78
6343;BME280;3204;42.698;23.298;2023-03-26T00:27:56;94407.72;;;11.84;68.62
6343;BME280;3204;42.698;23.298;2023-03-26T00:30:22;94417.41;;;11.93;68.41
6343;BME280;3204;42.698;23.298;2023-03-26T00:32:48;94393.75;;;11.94;68.10
6343;BME280;3204;42.698;23.298;2023-03-26T00:35:13;94401.03;;;11.81;68.45
6343;BME280;3204;42.698;23.298;2023-03-26T00:37:39;94410.25;;;11.89;68.56
6343;BME280;3204;42.698;23.298;2023-03-26T00:40:08;94405.47;;;11.86;68.61
6343;BME280;3204;42.698;23.298;2023-03-26T00:42:36;94401.81;;;11.82;68.49
6343;BME280;3204;42.698;23.298;2023-03-26T00:45:04;94408.06;;;11.82;68.04
6343;BME280;3204;42.698;23.298;2023-03-26T00:47:30;94407.44;;;11.77;68.35
6343;BME280;3204;42.698;23.298;2023-03-26T00:49:56;94400.75;;;11.74;68.55
6343;BME280;3204;42.698;23.298;2023-03-26T00:52:22;94411.22;;;11.84;67.74
6343;BME280;3204;42.698;23.298;2023-03-26T00:54:50;94408.81;;;11.83;67.88
6343;BME280;3204;42.698;23.298;2023-03-26T00:57:16;94391.03;;;11.94;67.24
6343;BME280;3204;42.698;23.298;2023-03-26T00:59:42;94406.81;;;12.00;66.61
6343;BME280;3204;42.698;23.298;2023-03-26T01:02:12;94402.22;;;11.92;66.87
6343;BME280;3204;42.698;23.298;2023-03-26T01:04:44;94404.41;;;11.78;67.14
6343;BME280;3204;42.698;23.298;2023-03-26T01:07:12;94408.56;;;11.76;67.58
6343;BME280;3204;42.698;23.298;2023-03-26T01:09:43;94405.41;;;11.74;67.38
6343;BME280;3204;42.698;23.298;2023-03-26T01:12:18;94418.81;;;11.70;67.34
6343;BME280;3204;42.698;23.298;2023-03-26T01:14:55;94416.78;;;11.67;67.37
6343;BME280;3204;42.698;23.298;2023-03-26T01:17:25;94414.75;;;11.85;66.73
6343;BME280;3204;42.698;23.298;2023-03-26T01:20:19;94430.31;;;11.76;66.80
6343;BME280;3204;42.698;23.298;2023-03-26T01:22:51;94418.44;;;11.80;66.91
6343;BME280;3204;42.698;23.298;2023-03-26T01:25:22;94426.97;;;11.70;67.52
6343;BME280;3204;42.698;23.298;2023-03-26T01:27:51;94421.91;;;11.60;67.82
6343;BME280;3204;42.698;23.298;2023-03-26T01:30:30;94436.88;;;11.66;67.68
6343;BME280;3204;42.698;23.298;2023-03-26T01:38:27;94432.78;;;11.60;67.82
6343;BME280;3204;42.698;23.298;2023-03-26T01:44:02;94429.41;;;11.63;67.82
6343;BME280;3204;42.698;23.298;2023-03-26T01:46:32;94433.66;;;11.73;67.91
6343;BME280;3204;42.698;23.298;2023-03-26T01:49:02;94446.28;;;11.77;67.71
6343;BME280;3204;42.698;23.298;2023-03-26T01:51:30;94442.31;;;11.75;67.69
6343;BME280;3204;42.698;23.298;2023-03-26T01:53:56;94442.47;;;11.70;68.12
6343;BME280;3204;42.698;23.298;2023-03-26T01:59:41;94436.72;;;11.71;68.34
6343;BME280;3204;42.698;23.298;2023-03-26T02:02:20;94434.53;;;11.65;68.50
6343;BME280;3204;42.698;23.298;2023-03-26T02:04:54;94444.88;;;11.71;68.49
6343;BME280;3204;42.698;23.298;2023-03-26T02:07:43;94444.59;;;11.64;69.45
6343;BME280;3204;42.698;23.298;2023-03-26T02:10:32;94437.22;;;11.56;69.70
6343;BME280;3204;42.698;23.298;2023-03-26T02:12:59;94436.16;;;11.49;70.01
6343;BME280;3204;42.698;23.298;2023-03-26T02:15:24;94439.94;;;11.56;69.74
6343;BME280;3204;42.698;23.298;2023-03-26T02:17:50;94441.41;;;11.54;70.19
6343;BME280;3204;42.698;23.298;2023-03-26T02:20:17;94448.78;;;11.53;69.96
6343;BME280;3204;42.698;23.298;2023-03-26T02:22:44;94445.25;;;11.53;70.20
6343;BME280;3204;42.698;23.298;2023-03-26T02:25:16;94446.94;;;11.74;69.44
6343;BME280;3204;42.698;23.298;2023-03-26T02:27:43;94439.63;;;11.58;69.64
6343;BME280;3204;42.698;23.298;2023-03-26T02:30:11;94436.16;;;11.49;70.26
6343;BME280;3204;42.698;23.298;2023-03-26T02:32:37;94442.53;;;11.53;70.10
6343;BME280;3204;42.698;23.298;2023-03-26T02:35:03;94450.50;;;11.58;70.71
6343;BME280;3204;42.698;23.298;2023-03-26T02:37:29;94446.38;;;11.52;70.14
6343;BME280;3204;42.698;23.298;2023-03-26T02:39:58;94447.34;;;11.47;70.77
6343;BME280;3204;42.698;23.298;2023-03-26T02:42:24;94443.72;;;11.43;70.67
6343;BME280;3204;42.698;23.298;2023-03-26T02:44:50;94450.41;;;11.46;70.72
6343;BME280;3204;42.698;23.298;2023-03-26T02:47:15;94466.84;;;11.49;70.50
6343;BME280;3204;42.698;23.298;2023-03-26T02:49:41;94466.97;;;11.53;70.99
6343;BME280;3204;42.698;23.298;2023-03-26T02:52:06;94474.31;;;11.61;70.59
6343;BME280;3204;42.698;23.298;2023-03-26T02:54:33;94475.94;;;11.53;70.90
6343;BME280;3204;42.698;23.298;2023-03-26T02:56:59;94471.13;;;11.50;70.93
6343;BME280;3204;42.698;23.298;2023-03-26T02:59:25;94478.66;;;11.45;71.58
6343;BME280;3204;42.698;23.298;2023-03-26T03:01:51;94475.66;;;11.38;71.47
6343;BME280;3204;42.698;23.298;2023-03-26T03:04:16;94483.75;;;11.55;70.50
6343;BME280;3204;42.698;23.298;2023-03-26T03:06:43;94488.75;;;11.44;70.91
6343;BME280;3204;42.698;23.298;2023-03-26T03:09:10;94484.44;;;11.43;70.68
6343;BME280;3204;42.698;23.298;2023-03-26T03:11:39;94487.16;;;11.35;70.58
6343;BME280;3204;42.698;23.298;2023-03-26T03:14:05;94483.84;;;11.21;70.99
6343;BME280;3204;42.698;23.298;2023-03-26T03:16:31;94484.34;;;11.14;71.26
6343;BME280;3204;42.698;23.298;2023-03-26T03:18:57;94489.44;;;11.16;71.35
6343;BME280;3204;42.698;23.298;2023-03-26T03:21:24;94492.03;;;11.12;71.66
6343;BME280;3204;42.698;23.298;2023-03-26T03:23:51;94488.19;;;11.22;70.72
6343;BME280;3204;42.698;23.298;2023-03-26T03:26:19;94508.00;;;11.05;71.51
6343;BME280;3204;42.698;23.298;2023-03-26T03:28:52;94507.06;;;11.01;71.36
6343;BME280;3204;42.698;23.298;2023-03-26T03:31:18;94496.69;;;10.95;71.68
6343;BME280;3204;42.698;23.298;2023-03-26T03:33:44;94493.28;;;11.15;70.71
6343;BME280;3204;42.698;23.298;2023-03-26T03:36:11;94499.06;;;11.05;70.78
6343;BME280;3204;42.698;23.298;2023-03-26T03:38:39;94502.13;;;10.95;71.41
6343;BME280;3204;42.698;23.298;2023-03-26T03:41:05;94475.50;;;10.80;72.12
6343;BME280;3204;42.698;23.298;2023-03-26T03:43:31;94492.38;;;10.85;71.79
6343;BME280;3204;42.698;23.298;2023-03-26T03:45:57;94490.31;;;10.74;72.65
6343;BME280;3204;42.698;23.298;2023-03-26T03:48:23;94489.22;;;10.75;72.43
6343;BME280;3204;42.698;23.298;2023-03-26T03:50:48;94484.91;;;10.74;72.72
6343;BME280;3204;42.698;23.298;2023-03-26T03:53:14;94487.78;;;10.69;72.68
6343;BME280;3204;42.698;23.298;2023-03-26T03:55:43;94499.56;;;10.73;72.24
6343;BME280;3204;42.698;23.298;2023-03-26T03:58:26;94498.47;;;10.74;72.45
6343;BME280;3204;42.698;23.298;2023-03-26T04:00:53;94493.84;;;10.66;72.74
6343;BME280;3204;42.698;23.298;2023-03-26T04:03:25;94491.75;;;10.71;72.82
6343;BME280;3204;42.698;23.298;2023-03-26T04:05:52;94492.41;;;10.68;73.24
6343;BME280;3204;42.698;23.298;2023-03-26T04:08:22;94495.75;;;10.82;72.61
6343;BME280;3204;42.698;23.298;2023-03-26T04:10:50;94499.13;;;10.71;72.88
6343;BME280;3204;42.698;23.298;2023-03-26T04:13:16;94517.91;;;10.84;72.02
6343;BME280;3204;42.698;23.298;2023-03-26T04:15:42;94512.19;;;10.69;73.08
6343;BME280;3204;42.698;23.298;2023-03-26T04:18:08;94513.16;;;10.64;72.88
6343;BME280;3204;42.698;23.298;2023-03-26T04:20:38;94521.91;;;10.53;73.79
6343;BME280;3204;42.698;23.298;2023-03-26T04:23:06;94523.34;;;10.50;74.10
6343;BME280;3204;42.698;23.298;2023-03-26T04:25:33;94540.44;;;10.51;74.57
6343;BME280;3204;42.698;23.298;2023-03-26T04:28:05;94542.50;;;10.54;73.94
6343;BME280;3204;42.698;23.298;2023-03-26T04:30:32;94551.28;;;10.51;74.72
6343;BME280;3204;42.698;23.298;2023-03-26T04:33:00;94558.75;;;10.54;74.34
6343;BME280;3204;42.698;23.298;2023-03-26T04:35:33;94557.81;;;10.58;74.38
6343;BME280;3204;42.698;23.298;2023-03-26T04:38:00;94566.75;;;10.59;74.12
6343;BME280;3204;42.698;23.298;2023-03-26T04:40:30;94572.19;;;10.67;73.47
6343;BME280;3204;42.698;23.298;2023-03-26T04:43:01;94582.22;;;10.67;73.43
6343;BME280;3204;42.698;23.298;2023-03-26T04:45:28;94583.03;;;10.67;73.60
6343;BME280;3204;42.698;23.298;2023-03-26T04:47:58;94588.47;;;10.76;72.77
6343;BME280;3204;42.698;23.298;2023-03-26T04:50:24;94585.09;;;10.79;72.30
6343;BME280;3204;42.698;23.298;2023-03-26T04:52:52;94593.72;;;10.81;71.98
6343;BME280;3204;42.698;23.298;2023-03-26T04:55:52;94591.66;;;10.95;71.08
6343;BME280;3204;42.698;23.298;2023-03-26T04:58:20;94596.91;;;11.00;71.44
6343;BME280;3204;42.698;23.298;2023-03-26T05:00:46;94587.81;;;11.04;71.19
6343;BME280;3204;42.698;23.298;2023-03-26T05:03:12;94588.31;;;11.06;70.52
6343;BME280;3204;42.698;23.298;2023-03-26T05:05:38;94587.16;;;11.16;70.25
6343;BME280;3204;42.698;23.298;2023-03-26T05:08:04;94592.78;;;11.19;69.72
6343;BME280;3204;42.698;23.298;2023-03-26T05:10:30;94592.59;;;11.07;69.60
6343;BME280;3204;42.698;23.298;2023-03-26T05:12:56;94604.75;;;11.10;69.83
6343;BME280;3204;42.698;23.298;2023-03-26T05:15:21;94609.69;;;11.16;69.34
6343;BME280;3204;42.698;23.298;2023-03-26T05:17:47;94602.19;;;11.13;68.47
6343;BME280;3204;42.698;23.298;2023-03-26T05:20:16;94610.63;;;11.12;68.53
6343;BME280;3204;42.698;23.298;2023-03-26T05:22:44;94604.09;;;11.13;68.32
6343;BME280;3204;42.698;23.298;2023-03-26T05:25:10;94612.72;;;11.06;68.51
6343;BME280;3204;42.698;23.298;2023-03-26T05:27:35;94612.41;;;11.16;68.39
6343;BME280;3204;42.698;23.298;2023-03-26T05:30:02;94621.00;;;11.18;68.86
6343;BME280;3204;42.698;23.298;2023-03-26T05:32:29;94619.91;;;11.28;68.59
6343;BME280;3204;42.698;23.298;2023-03-26T05:34:55;94611.44;;;11.29;68.95
6343;BME280;3204;42.698;23.298;2023-03-26T05:37:20;94614.13;;;11.38;68.74
6343;BME280;3204;42.698;23.298;2023-03-26T05:39:58;94612.34;;;11.50;68.26
6343;BME280;3204;42.698;23.298;2023-03-26T05:42:24;94619.06;;;11.61;68.26
6343;BME280;3204;42.698;23.298;2023-03-26T05:44:50;94626.56;;;11.56;67.83
6343;BME280;3204;42.698;23.298;2023-03-26T05:47:15;94628.16;;;11.65;68.05
6343;BME280;3204;42.698;23.298;2023-03-26T05:49:41;94633.72;;;11.86;67.65
6343;BME280;3204;42.698;23.298;2023-03-26T05:52:06;94630.09;;;12.11;66.04
6343;BME280;3204;42.698;23.298;2023-03-26T05:54:32;94635.59;;;12.02;65.57
6343;BME280;3204;42.698;23.298;2023-03-26T05:56:57;94630.53;;;11.84;65.89
6343;BME280;3204;42.698;23.298;2023-03-26T05:59:24;94627.50;;;11.77;65.78
6343;BME280;3204;42.698;23.298;2023-03-26T06:01:49;94620.16;;;11.77;66.00
6343;BME280;3204;42.698;23.298;2023-03-26T06:04:16;94621.22;;;11.93;65.51
6343;BME280;3204;42.698;23.298;2023-03-26T06:06:42;94618.28;;;12.15;64.53
6343;BME280;3204;42.698;23.298;2023-03-26T06:09:09;94623.44;;;12.37;63.30
6343;BME280;3204;42.698;23.298;2023-03-26T06:11:38;94619.09;;;12.74;62.02
6343;BME280;3204;42.698;23.298;2023-03-26T06:14:04;94616.63;;;12.81;61.67
6343;BME280;3204;42.698;23.298;2023-03-26T06:16:29;94615.78;;;12.89;61.40
6343;BME280;3204;42.698;23.298;2023-03-26T06:18:55;94621.78;;;13.03;60.38
6343;BME280;3204;42.698;23.298;2023-03-26T06:21:21;94616.13;;;13.08;60.35
6343;BME280;3204;42.698;23.298;2023-03-26T06:23:46;94616.59;;;13.30;59.64
6343;BME280;3204;42.698;23.298;2023-03-26T06:26:13;94619.84;;;13.44;58.93
6343;BME280;3204;42.698;23.298;2023-03-26T06:28:39;94616.81;;;13.58;59.51
6343;BME280;3204;42.698;23.298;2023-03-26T06:31:04;94617.78;;;13.74;57.85
6343;BME280;3204;42.698;23.298;2023-03-26T06:33:30;94605.09;;;13.78;58.23
6343;BME280;3204;42.698;23.298;2023-03-26T06:35:55;94609.97;;;14.41;59.19
6343;BME280;3204;42.698;23.298;2023-03-26T06:38:22;94603.91;;;14.83;60.61
6343;BME280;3204;42.698;23.298;2023-03-26T06:40:47;94607.06;;;15.09;57.00
6343;BME280;3204;42.698;23.298;2023-03-26T06:43:13;94615.25;;;15.09;53.44
6343;BME280;3204;42.698;23.298;2023-03-26T06:45:38;94603.44;;;14.93;54.59
6343;BME280;3204;42.698;23.298;2023-03-26T06:48:04;94614.41;;;14.81;53.26
6343;BME280;3204;42.698;23.298;2023-03-26T06:50:29;94620.78;;;14.49;52.81
6343;BME280;3204;42.698;23.298;2023-03-26T06:52:56;94628.81;;;14.22;53.28
6343;BME280;3204;42.698;23.298;2023-03-26T06:55:22;94631.81;;;14.41;53.28
6343;BME280;3204;42.698;23.298;2023-03-26T06:57:49;94633.63;;;14.49;52.32
6343;BME280;3204;42.698;23.298;2023-03-26T07:00:15;94637.72;;;14.67;52.67
6343;BME280;3204;42.698;23.298;2023-03-26T07:02:40;94633.63;;;14.73;52.21
6343;BME280;3204;42.698;23.298;2023-03-26T07:05:06;94639.75;;;14.94;51.54
6343;BME280;3204;42.698;23.298;2023-03-26T07:07:32;94638.34;;;15.63;50.86
6343;BME280;3204;42.698;23.298;2023-03-26T07:09:57;94636.22;;;15.05;50.39
6343;BME280;3204;42.698;23.298;2023-03-26T07:12:24;94635.91;;;14.59;52.17
6343;BME280;3204;42.698;23.298;2023-03-26T07:14:50;94634.72;;;14.24;52.24
6343;BME280;3204;42.698;23.298;2023-03-26T07:17:15;94637.94;;;14.62;52.45
6343;BME280;3204;42.698;23.298;2023-03-26T07:19:41;94625.91;;;15.26;51.25
6343;BME280;3204;42.698;23.298;2023-03-26T07:22:13;94628.78;;;15.18;49.79
6343;BME280;3204;42.698;23.298;2023-03-26T07:24:40;94622.63;;;15.88;48.12
6343;BME280;3204;42.698;23.298;2023-03-26T07:32:24;94618.66;;;16.75;46.46
6343;BME280;3204;42.698;23.298;2023-03-26T07:34:57;94624.47;;;17.39;45.40
6343;BME280;3204;42.698;23.298;2023-03-26T07:42:45;94619.88;;;16.93;44.58
6343;BME280;3204;42.698;23.298;2023-03-26T07:45:23;94622.16;;;17.41;44.15
6343;BME280;3204;42.698;23.298;2023-03-26T07:47:52;94610.53;;;17.67;42.74
6343;BME280;3204;42.698;23.298;2023-03-26T07:50:21;94609.84;;;18.11;43.13
6343;BME280;3204;42.698;23.298;2023-03-26T07:52:47;94620.81;;;18.53;42.36
6343;BME280;3204;42.698;23.298;2023-03-26T07:55:14;94606.78;;;17.75;42.73
6343;BME280;3204;42.698;23.298;2023-03-26T08:05:48;94607.94;;;19.31;37.66
6343;BME280;3204;42.698;23.298;2023-03-26T08:16:35;94594.75;;;19.73;36.69
6343;BME280;3204;42.698;23.298;2023-03-26T08:19:12;94603.56;;;19.86;36.68
6343;BME280;3204;42.698;23.298;2023-03-26T08:21:46;94606.06;;;19.65;36.52
6343;BME280;3204;42.698;23.298;2023-03-26T08:32:03;94610.13;;;19.45;36.43
6343;BME280;3204;42.698;23.298;2023-03-26T08:34:29;94605.31;;;18.86;37.52
6343;BME280;3204;42.698;23.298;2023-03-26T08:36:55;94607.69;;;19.40;37.45
6343;BME280;3204;42.698;23.298;2023-03-26T08:39:20;94607.56;;;19.92;36.70
6343;BME280;3204;42.698;23.298;2023-03-26T08:55:46;94607.13;;;20.59;35.63
6343;BME280;3204;42.698;23.298;2023-03-26T09:01:12;94615.63;;;21.31;33.33
6343;BME280;3204;42.698;23.298;2023-03-26T09:21:43;94597.06;;;21.31;32.75
6343;BME280;3204;42.698;23.298;2023-03-26T09:24:36;94599.41;;;21.90;32.27
6343;BME280;3204;42.698;23.298;2023-03-26T09:38:10;94583.97;;;21.82;32.24
6343;BME280;3204;42.698;23.298;2023-03-26T09:40:57;94579.47;;;22.63;31.80
6343;BME280;3204;42.698;23.298;2023-03-26T09:51:28;94565.13;;;21.27;30.89
6343;BME280;3204;42.698;23.298;2023-03-26T10:02:39;94566.84;;;22.73;30.09
6343;BME280;3204;42.698;23.298;2023-03-26T10:06:03;94560.50;;;21.41;30.20
6343;BME280;3204;42.698;23.298;2023-03-26T10:08:33;94554.44;;;21.97;29.95
6343;BME280;3204;42.698;23.298;2023-03-26T10:11:10;94554.44;;;22.07;29.88
6343;BME280;3204;42.698;23.298;2023-03-26T10:22:14;94519.59;;;23.78;27.48
6343;BME280;3204;42.698;23.298;2023-03-26T10:47:09;94501.25;;;25.10;25.35
6343;BME280;3204;42.698;23.298;2023-03-26T10:52:24;94504.72;;;24.81;25.31
6343;BME280;3204;42.698;23.298;2023-03-26T10:57:53;94496.78;;;24.79;24.73
6343;BME280;3204;42.698;23.298;2023-03-26T11:17:01;94474.41;;;23.88;24.15
6343;BME280;3204;42.698;23.298;2023-03-26T11:19:34;94475.16;;;23.99;24.23
6343;BME280;3204;42.698;23.298;2023-03-26T11:27:54;94455.41;;;22.06;26.15
6343;BME280;3204;42.698;23.298;2023-03-26T11:33:10;94451.47;;;22.24;26.13
6343;BME280;3204;42.698;23.298;2023-03-26T11:35:41;94459.38;;;22.61;25.01
6343;BME280;3204;42.698;23.298;2023-03-26T11:38:12;94452.63;;;22.16;25.60
6343;BME280;3204;42.698;23.298;2023-03-26T11:40:42;94448.66;;;22.94;25.10
6343;BME280;3204;42.698;23.298;2023-03-26T11:43:13;94436.09;;;22.51;25.43
6343;BME280;3204;42.698;23.298;2023-03-26T11:45:44;94433.94;;;21.40;25.81
6343;BME280;3204;42.698;23.298;2023-03-26T11:48:43;94426.94;;;20.78;26.33
6343;BME280;3204;42.698;23.298;2023-03-26T11:51:28;94411.38;;;21.24;26.95
6343;BME280;3204;42.698;23.298;2023-03-26T11:53:55;94404.34;;;21.30;27.08
6343;BME280;3204;42.698;23.298;2023-03-26T11:59:08;94384.31;;;20.68;26.89
6343;BME280;3204;42.698;23.298;2023-03-26T12:02:14;94383.03;;;20.48;27.15
6343;BME280;3204;42.698;23.298;2023-03-26T12:04:45;94390.41;;;20.30;27.33
6343;BME280;3204;42.698;23.298;2023-03-26T12:07:17;94372.66;;;20.96;26.40
6343;BME280;3204;42.698;23.298;2023-03-26T12:09:53;94371.94;;;20.38;26.58
6343;BME280;3204;42.698;23.298;2023-03-26T12:12:23;94377.81;;;21.01;25.93
6343;BME280;3204;42.698;23.298;2023-03-26T12:14:49;94373.63;;;21.56;24.90
6343;BME280;3204;42.698;23.298;2023-03-26T12:17:30;94365.81;;;22.07;25.08
6343;BME280;3204;42.698;23.298;2023-03-26T12:19:56;94363.06;;;22.17;24.19
6343;BME280;3204;42.698;23.298;2023-03-26T12:22:37;94357.91;;;21.95;24.34
6343;BME280;3204;42.698;23.298;2023-03-26T12:25:19;94347.63;;;21.67;24.83
6343;BME280;3204;42.698;23.298;2023-03-26T12:30:25;94339.34;;;22.23;23.42
6343;BME280;3204;42.698;23.298;2023-03-26T12:32:56;94340.00;;;22.83;23.08
6343;BME280;3204;42.698;23.298;2023-03-26T12:35:24;94336.09;;;22.77;23.19
6343;BME280;3204;42.698;23.298;2023-03-26T12:37:52;94336.56;;;22.37;23.95
6343;BME280;3204;42.698;23.298;2023-03-26T12:40:30;94329.31;;;22.92;22.22
6343;BME280;3204;42.698;23.298;2023-03-26T12:42:59;94328.69;;;23.43;21.25
6343;BME280;3204;42.698;23.298;2023-03-26T12:45:36;94332.84;;;23.68;20.72
6343;BME280;3204;42.698;23.298;2023-03-26T12:48:02;94331.91;;;23.92;21.42
6343;BME280;3204;42.698;23.298;2023-03-26T12:50:35;94326.16;;;24.17;21.73
6343;BME280;3204;42.698;23.298;2023-03-26T13:06:40;94319.41;;;23.70;20.39
6343;BME280;3204;42.698;23.298;2023-03-26T13:09:21;94320.75;;;23.45;20.37
6343;BME280;3204;42.698;23.298;2023-03-26T13:14:40;94310.91;;;23.37;20.19
6343;BME280;3204;42.698;23.298;2023-03-26T13:17:25;94313.94;;;23.60;19.76
6343;BME280;3204;42.698;23.298;2023-03-26T13:20:10;94311.03;;;23.09;19.46
6343;BME280;3204;42.698;23.298;2023-03-26T13:28:14;94304.53;;;22.64;20.39
6343;BME280;3204;42.698;23.298;2023-03-26T13:36:04;94304.97;;;22.38;21.26
6343;BME280;3204;42.698;23.298;2023-03-26T13:41:53;94306.56;;;22.25;21.55
6343;BME280;3204;42.698;23.298;2023-03-26T13:44:34;94304.97;;;22.52;21.04
6343;BME280;3204;42.698;23.298;2023-03-26T13:47:17;94295.50;;;22.39;21.59
6343;BME280;3204;42.698;23.298;2023-03-26T13:49:49;94281.69;;;22.50;21.66
6343;BME280;3204;42.698;23.298;2023-03-26T13:52:29;94284.91;;;21.57;21.87
6343;BME280;3204;42.698;23.298;2023-03-26T13:58:20;94276.63;;;21.22;22.34
6343;BME280;3204;42.698;23.298;2023-03-26T14:03:40;94270.66;;;21.06;21.06
6343;BME280;3204;42.698;23.298;2023-03-26T14:08:56;94275.88;;;21.81;21.12
6343;BME280;3204;42.698;23.298;2023-03-26T14:11:56;94271.13;;;21.99;21.15
6343;BME280;3204;42.698;23.298;2023-03-26T14:17:22;94268.38;;;21.85;21.65
6343;BME280;3204;42.698;23.298;2023-03-26T14:22:29;94252.56;;;21.37;22.04
6343;BME280;3204;42.698;23.298;2023-03-26T14:28:18;94244.69;;;21.53;22.83
6343;BME280;3204;42.698;23.298;2023-03-26T14:30:57;94250.59;;;21.34;22.75
6343;BME280;3204;42.698;23.298;2023-03-26T14:33:41;94251.28;;;20.89;23.49
6343;BME280;3204;42.698;23.298;2023-03-26T14:39:18;94249.72;;;20.88;23.38
6343;BME280;3204;42.698;23.298;2023-03-26T14:41:52;94242.66;;;20.97;23.91
6343;BME280;3204;42.698;23.298;2023-03-26T14:47:23;94237.31;;;20.33;23.72
6343;BME280;3204;42.698;23.298;2023-03-26T14:55:12;94238.94;;;20.37;23.47
6343;BME280;3204;42.698;23.298;2023-03-26T15:12:00;94237.59;;;20.07;24.07
6343;BME280;3204;42.698;23.298;2023-03-26T15:17:28;94239.19;;;20.11;24.07
6343;BME280;3204;42.698;23.298;2023-03-26T15:26:26;94239.66;;;19.63;25.84
6343;BME280;3204;42.698;23.298;2023-03-26T15:35:26;94237.91;;;18.97;26.65
6343;BME280;3204;42.698;23.298;2023-03-26T15:46:30;94242.16;;;18.88;26.60
6343;BME280;3204;42.698;23.298;2023-03-26T15:52:04;94242.81;;;18.78;26.96
6343;BME280;3204;42.698;23.298;2023-03-26T15:57:28;94253.91;;;18.52;27.71
6343;BME280;3204;42.698;23.298;2023-03-26T16:00:02;94246.94;;;18.28;27.89
6343;BME280;3204;42.698;23.298;2023-03-26T16:03:23;94244.50;;;18.23;28.23
6343;BME280;3204;42.698;23.298;2023-03-26T16:05:55;94249.53;;;18.14;28.42
6343;BME280;3204;42.698;23.298;2023-03-26T16:11:06;94239.28;;;17.82;28.86
6343;BME280;3204;42.698;23.298;2023-03-26T16:13:39;94237.13;;;17.68;28.84
6343;BME280;3204;42.698;23.298;2023-03-26T16:19:29;94250.47;;;17.44;29.29
6343;BME280;3204;42.698;23.298;2023-03-26T16:29:18;94253.03;;;17.11;29.86
6343;BME280;3204;42.698;23.298;2023-03-26T16:45:36;94260.53;;;16.91;30.81
6343;BME280;3204;42.698;23.298;2023-03-26T16:48:19;94259.31;;;16.89;31.03
6343;BME280;3204;42.698;23.298;2023-03-26T16:51:04;94260.09;;;16.89;31.09
6343;BME280;3204;42.698;23.298;2023-03-26T16:56:51;94252.44;;;16.98;31.21
6343;BME280;3204;42.698;23.298;2023-03-26T17:05:05;94260.31;;;16.58;31.67
6343;BME280;3204;42.698;23.298;2023-03-26T17:07:44;94269.25;;;16.55;31.86
6343;BME280;3204;42.698;23.298;2023-03-26T17:10:26;94267.22;;;16.52;32.04
6343;BME280;3204;42.698;23.298;2023-03-26T17:13:20;94256.72;;;16.54;32.22
6343;BME280;3204;42.698;23.298;2023-03-26T17:16:14;94256.16;;;16.45;32.46
6343;BME280;3204;42.698;23.298;2023-03-26T17:22:15;94266.59;;;16.39;33.08
6343;BME280;3204;42.698;23.298;2023-03-26T17:24:58;94262.13;;;16.31;33.32
6343;BME280;3204;42.698;23.298;2023-03-26T17:27:42;94276.53;;;16.28;33.66
6343;BME280;3204;42.698;23.298;2023-03-26T17:41:03;94269.75;;;16.03;33.64
6343;BME280;3204;42.698;23.298;2023-03-26T17:43:45;94271.28;;;16.01;34.26
6343;BME280;3204;42.698;23.298;2023-03-26T17:49:26;94264.69;;;15.86;35.48
6343;BME280;3204;42.698;23.298;2023-03-26T17:51:57;94262.88;;;15.75;35.55
6343;BME280;3204;42.698;23.298;2023-03-26T17:57:01;94264.72;;;15.71;36.38
6343;BME280;3204;42.698;23.298;2023-03-26T17:59:28;94257.16;;;15.64;36.89
6343;BME280;3204;42.698;23.298;2023-03-26T18:01:56;94249.72;;;15.46;36.65
6343;BME280;3204;42.698;23.298;2023-03-26T18:04:35;94259.78;;;15.42;36.94
6343;BME280;3204;42.698;23.298;2023-03-26T18:07:44;94260.50;;;15.39;37.70
6343;BME280;3204;42.698;23.298;2023-03-26T18:10:40;94255.63;;;15.32;37.48
6343;BME280;3204;42.698;23.298;2023-03-26T18:18:17;94257.69;;;15.20;37.38
6343;BME280;3204;42.698;23.298;2023-03-26T18:20:48;94264.13;;;15.12;37.45
6343;BME280;3204;42.698;23.298;2023-03-26T18:25:55;94251.88;;;14.90;37.94
6343;BME280;3204;42.698;23.298;2023-03-26T18:28:29;94250.38;;;14.93;37.98
6343;BME280;3204;42.698;23.298;2023-03-26T18:31:06;94248.34;;;14.90;37.81
6343;BME280;3204;42.698;23.298;2023-03-26T18:33:46;94241.56;;;14.84;38.03
6343;BME280;3204;42.698;23.298;2023-03-26T18:36:14;94251.25;;;14.81;38.17
6343;BME280;3204;42.698;23.298;2023-03-26T18:38:40;94242.53;;;14.76;38.41
6343;BME280;3204;42.698;23.298;2023-03-26T18:41:19;94240.94;;;14.75;38.62
6343;BME280;3204;42.698;23.298;2023-03-26T18:43:46;94237.00;;;14.72;38.59
6343;BME280;3204;42.698;23.298;2023-03-26T18:46:13;94235.31;;;14.68;38.79
6343;BME280;3204;42.698;23.298;2023-03-26T18:48:38;94231.09;;;14.55;38.85
6343;BME280;3204;42.698;23.298;2023-03-26T18:51:05;94225.44;;;14.48;39.04
6343;BME280;3204;42.698;23.298;2023-03-26T18:53:40;94226.56;;;14.47;39.20
6343;BME280;3204;42.698;23.298;2023-03-26T18:56:32;94223.69;;;14.40;39.42
6343;BME280;3204;42.698;23.298;2023-03-26T18:59:01;94228.03;;;14.29;39.36
6343;BME280;3204;42.698;23.298;2023-03-26T19:01:29;94226.47;;;14.28;39.43
6343;BME280;3204;42.698;23.298;2023-03-26T19:04:06;94220.09;;;14.24;39.39
6343;BME280;3204;42.698;23.298;2023-03-26T19:06:33;94205.22;;;14.21;39.83
6343;BME280;3204;42.698;23.298;2023-03-26T19:09:07;94200.25;;;14.11;39.53
6343;BME280;3204;42.698;23.298;2023-03-26T19:11:37;94198.59;;;14.07;39.89
6343;BME280;3204;42.698;23.298;2023-03-26T19:14:07;94191.66;;;14.09;40.16
6343;BME280;3204;42.698;23.298;2023-03-26T19:16:37;94177.13;;;14.05;39.73